Terminal Aerodrome Forecast
Issued by NWS Portland, OR

Home | Current Version | Previous Version | Text Only | Print | Product List | Glossary On
Versions: 1 2 3 4 5 6 7 8 9 10 11 12 13 14 15 16 17
000
FTUS46 KPQR 281135
TAFAST
TAF
KAST 281135Z 2812/2912 19005KT P6SM -SHRA SCT015 BKN025 OVC040
      TEMPO 2812/2816 3SM -SHRA BKN015 OVC025
     FM282000 23012KT P6SM VCSH SCT025 BKN045 BKN060
     FM290200 25008KT P6SM BKN025 OVC045
     FM290400 26004KT P6SM BKN020 OVC035=

USA.gov is the U.S. government's official web portal to all federal, state and local government web resources and services.